sensor_id;sensor_type;location;lat;lon;timestamp;temperature;humidity
12329;DHT22;6230;52.390;10.256;2023-07-29T00:00:46;22.80;63.90
12329;DHT22;6230;52.390;10.256;2023-07-29T00:03:12;22.80;63.90
12329;DHT22;6230;52.390;10.256;2023-07-29T00:05:38;22.80;63.90
12329;DHT22;6230;52.390;10.256;2023-07-29T00:08:04;22.80;63.90
12329;DHT22;6230;52.390;10.256;2023-07-29T00:10:31;22.80;63.90
12329;DHT22;6230;52.390;10.256;2023-07-29T00:12:57;22.80;64.00
12329;DHT22;6230;52.390;10.256;2023-07-29T00:15:22;22.80;63.90
12329;DHT22;6230;52.390;10.256;2023-07-29T00:17:48;22.80;63.80
12329;DHT22;6230;52.390;10.256;2023-07-29T00:20:14;22.80;63.80
12329;DHT22;6230;52.390;10.256;2023-07-29T00:22:39;22.80;63.90
12329;DHT22;6230;52.390;10.256;2023-07-29T00:25:05;22.80;63.80
12329;DHT22;6230;52.390;10.256;2023-07-29T00:27:31;22.80;63.80
12329;DHT22;6230;52.390;10.256;2023-07-29T00:29:56;22.80;63.80
12329;DHT22;6230;52.390;10.256;2023-07-29T00:32:22;22.70;63.80
12329;DHT22;6230;52.390;10.256;2023-07-29T00:34:47;22.70;63.80
12329;DHT22;6230;52.390;10.256;2023-07-29T00:37:13;22.70;63.80
12329;DHT22;6230;52.390;10.256;2023-07-29T00:39:38;22.70;63.70
12329;DHT22;6230;52.390;10.256;2023-07-29T00:42:05;22.70;63.80
12329;DHT22;6230;52.390;10.256;2023-07-29T00:44:30;22.70;63.80
12329;DHT22;6230;52.390;10.256;2023-07-29T00:47:01;22.70;63.80
12329;DHT22;6230;52.390;10.256;2023-07-29T00:49:27;22.70;63.80
12329;DHT22;6230;52.390;10.256;2023-07-29T00:51:53;22.60;63.70
12329;DHT22;6230;52.390;10.256;2023-07-29T00:54:19;22.70;63.80
12329;DHT22;6230;52.390;10.256;2023-07-29T00:56:44;22.60;63.70
12329;DHT22;6230;52.390;10.256;2023-07-29T00:59:10;22.60;63.80
12329;DHT22;6230;52.390;10.256;2023-07-29T01:01:36;22.60;63.80
12329;DHT22;6230;52.390;10.256;2023-07-29T01:04:02;22.50;63.80
12329;DHT22;6230;52.390;10.256;2023-07-29T01:12:13;22.50;63.80
12329;DHT22;6230;52.390;10.256;2023-07-29T01:17:33;22.50;63.80
12329;DHT22;6230;52.390;10.256;2023-07-29T01:20:01;22.50;63.80
12329;DHT22;6230;52.390;10.256;2023-07-29T01:22:32;22.40;63.80
12329;DHT22;6230;52.390;10.256;2023-07-29T01:24:59;22.40;63.80
12329;DHT22;6230;52.390;10.256;2023-07-29T01:27:25;22.40;63.80
12329;DHT22;6230;52.390;10.256;2023-07-29T01:29:50;22.40;63.90
12329;DHT22;6230;52.390;10.256;2023-07-29T01:32:53;22.30;63.80
12329;DHT22;6230;52.390;10.256;2023-07-29T01:35:45;22.30;64.00
12329;DHT22;6230;52.390;10.256;2023-07-29T01:38:29;22.30;63.90
12329;DHT22;6230;52.390;10.256;2023-07-29T01:41:01;22.20;63.90
12329;DHT22;6230;52.390;10.256;2023-07-29T01:43:28;22.20;63.80
12329;DHT22;6230;52.390;10.256;2023-07-29T01:45:54;22.20;63.80
12329;DHT22;6230;52.390;10.256;2023-07-29T01:48:20;22.20;63.80
12329;DHT22;6230;52.390;10.256;2023-07-29T01:50:45;22.20;63.80
12329;DHT22;6230;52.390;10.256;2023-07-29T01:53:11;22.20;63.80
12329;DHT22;6230;52.390;10.256;2023-07-29T01:55:36;22.20;63.70
12329;DHT22;6230;52.390;10.256;2023-07-29T01:58:01;22.20;63.70
12329;DHT22;6230;52.390;10.256;2023-07-29T02:00:27;22.20;63.70
12329;DHT22;6230;52.390;10.256;2023-07-29T02:02:53;22.20;63.70
12329;DHT22;6230;52.390;10.256;2023-07-29T02:05:18;22.20;63.70
12329;DHT22;6230;52.390;10.256;2023-07-29T02:07:44;22.10;63.70
12329;DHT22;6230;52.390;10.256;2023-07-29T02:10:09;22.10;63.80
12329;DHT22;6230;52.390;10.256;2023-07-29T02:12:35;22.10;63.90
12329;DHT22;6230;52.390;10.256;2023-07-29T02:15:00;22.00;64.60
12329;DHT22;6230;52.390;10.256;2023-07-29T02:17:26;22.00;63.90
12329;DHT22;6230;52.390;10.256;2023-07-29T02:19:52;22.00;63.90
12329;DHT22;6230;52.390;10.256;2023-07-29T02:22:18;22.00;63.90
12329;DHT22;6230;52.390;10.256;2023-07-29T02:24:44;22.00;63.90
12329;DHT22;6230;52.390;10.256;2023-07-29T02:27:10;22.00;63.90
12329;DHT22;6230;52.390;10.256;2023-07-29T02:29:36;22.00;63.90
12329;DHT22;6230;52.390;10.256;2023-07-29T02:32:02;22.00;63.90
12329;DHT22;6230;52.390;10.256;2023-07-29T02:34:28;22.00;64.00
12329;DHT22;6230;52.390;10.256;2023-07-29T02:36:54;22.00;64.00
12329;DHT22;6230;52.390;10.256;2023-07-29T02:39:20;22.00;64.00
12329;DHT22;6230;52.390;10.256;2023-07-29T02:41:45;21.90;64.00
12329;DHT22;6230;52.390;10.256;2023-07-29T02:44:11;21.90;64.00
12329;DHT22;6230;52.390;10.256;2023-07-29T02:46:36;21.90;64.20
12329;DHT22;6230;52.390;10.256;2023-07-29T02:49:02;21.90;64.20
12329;DHT22;6230;52.390;10.256;2023-07-29T02:51:29;21.90;64.30
12329;DHT22;6230;52.390;10.256;2023-07-29T02:53:55;21.90;64.30
12329;DHT22;6230;52.390;10.256;2023-07-29T02:56:20;22.00;64.30
12329;DHT22;6230;52.390;10.256;2023-07-29T02:58:46;22.00;64.30
12329;DHT22;6230;52.390;10.256;2023-07-29T03:01:11;22.00;64.20
12329;DHT22;6230;52.390;10.256;2023-07-29T03:03:37;22.00;65.00
12329;DHT22;6230;52.390;10.256;2023-07-29T03:06:07;22.00;64.10
12329;DHT22;6230;52.390;10.256;2023-07-29T03:08:34;22.00;64.10
12329;DHT22;6230;52.390;10.256;2023-07-29T03:11:09;22.10;64.20
12329;DHT22;6230;52.390;10.256;2023-07-29T03:13:35;22.10;64.20
12329;DHT22;6230;52.390;10.256;2023-07-29T03:16:08;22.10;64.20
12329;DHT22;6230;52.390;10.256;2023-07-29T03:18:34;22.10;64.30
12329;DHT22;6230;52.390;10.256;2023-07-29T03:21:00;22.10;64.20
12329;DHT22;6230;52.390;10.256;2023-07-29T03:23:27;22.10;64.20
12329;DHT22;6230;52.390;10.256;2023-07-29T03:25:58;22.20;64.30
12329;DHT22;6230;52.390;10.256;2023-07-29T03:28:25;22.10;64.40
12329;DHT22;6230;52.390;10.256;2023-07-29T03:30:51;22.10;64.40
12329;DHT22;6230;52.390;10.256;2023-07-29T03:33:17;22.10;64.40
12329;DHT22;6230;52.390;10.256;2023-07-29T03:35:42;22.10;64.40
12329;DHT22;6230;52.390;10.256;2023-07-29T03:38:13;22.10;64.50
12329;DHT22;6230;52.390;10.256;2023-07-29T03:40:39;22.10;64.50
12329;DHT22;6230;52.390;10.256;2023-07-29T03:43:05;22.10;64.70
12329;DHT22;6230;52.390;10.256;2023-07-29T03:45:31;22.20;64.70
12329;DHT22;6230;52.390;10.256;2023-07-29T03:47:57;22.10;64.80
12329;DHT22;6230;52.390;10.256;2023-07-29T03:50:23;22.10;64.80
12329;DHT22;6230;52.390;10.256;2023-07-29T03:52:49;22.10;64.80
12329;DHT22;6230;52.390;10.256;2023-07-29T03:55:15;22.20;64.80
12329;DHT22;6230;52.390;10.256;2023-07-29T03:57:41;22.20;64.80
12329;DHT22;6230;52.390;10.256;2023-07-29T04:00:06;22.20;64.70
12329;DHT22;6230;52.390;10.256;2023-07-29T04:02:32;22.20;64.70
12329;DHT22;6230;52.390;10.256;2023-07-29T04:04:57;22.20;64.70
12329;DHT22;6230;52.390;10.256;2023-07-29T04:07:23;22.20;64.60
12329;DHT22;6230;52.390;10.256;2023-07-29T04:09:49;22.20;64.60
12329;DHT22;6230;52.390;10.256;2023-07-29T04:12:15;22.20;64.60
12329;DHT22;6230;52.390;10.256;2023-07-29T04:14:40;22.20;64.70
12329;DHT22;6230;52.390;10.256;2023-07-29T04:17:07;22.20;64.60
12329;DHT22;6230;52.390;10.256;2023-07-29T04:19:33;22.20;64.70
12329;DHT22;6230;52.390;10.256;2023-07-29T04:21:58;22.20;64.70
12329;DHT22;6230;52.390;10.256;2023-07-29T04:24:24;22.20;64.80
12329;DHT22;6230;52.390;10.256;2023-07-29T04:26:50;22.20;64.90
12329;DHT22;6230;52.390;10.256;2023-07-29T04:29:15;22.20;64.90
12329;DHT22;6230;52.390;10.256;2023-07-29T04:31:41;22.20;64.90
12329;DHT22;6230;52.390;10.256;2023-07-29T04:34:06;22.20;65.00
12329;DHT22;6230;52.390;10.256;2023-07-29T04:36:32;22.30;65.00
12329;DHT22;6230;52.390;10.256;2023-07-29T04:38:58;22.30;64.80
12329;DHT22;6230;52.390;10.256;2023-07-29T04:41:24;22.40;64.80
12329;DHT22;6230;52.390;10.256;2023-07-29T04:43:49;22.40;64.70
12329;DHT22;6230;52.390;10.256;2023-07-29T04:46:15;22.40;64.70
12329;DHT22;6230;52.390;10.256;2023-07-29T04:48:41;22.40;64.80
12329;DHT22;6230;52.390;10.256;2023-07-29T04:51:06;22.40;64.90
12329;DHT22;6230;52.390;10.256;2023-07-29T04:53:32;22.40;65.00
12329;DHT22;6230;52.390;10.256;2023-07-29T04:55:59;22.40;64.90
12329;DHT22;6230;52.390;10.256;2023-07-29T04:58:24;22.40;65.60
12329;DHT22;6230;52.390;10.256;2023-07-29T05:00:50;22.50;64.90
12329;DHT22;6230;52.390;10.256;2023-07-29T05:03:15;22.50;64.80
12329;DHT22;6230;52.390;10.256;2023-07-29T05:05:41;22.50;64.70
12329;DHT22;6230;52.390;10.256;2023-07-29T05:08:07;22.50;64.80
12329;DHT22;6230;52.390;10.256;2023-07-29T05:10:32;22.50;64.90
12329;DHT22;6230;52.390;10.256;2023-07-29T05:12:58;22.50;65.00
12329;DHT22;6230;52.390;10.256;2023-07-29T05:15:23;22.50;65.00
12329;DHT22;6230;52.390;10.256;2023-07-29T05:17:49;22.50;65.00
12329;DHT22;6230;52.390;10.256;2023-07-29T05:20:14;22.50;65.10
12329;DHT22;6230;52.390;10.256;2023-07-29T05:22:40;22.50;65.10
12329;DHT22;6230;52.390;10.256;2023-07-29T05:25:06;22.50;65.20
12329;DHT22;6230;52.390;10.256;2023-07-29T05:27:31;22.60;65.40
12329;DHT22;6230;52.390;10.256;2023-07-29T05:29:57;22.60;65.40
12329;DHT22;6230;52.390;10.256;2023-07-29T05:32:22;22.60;65.50
12329;DHT22;6230;52.390;10.256;2023-07-29T05:34:48;22.60;65.50
12329;DHT22;6230;52.390;10.256;2023-07-29T05:37:13;22.60;65.50
12329;DHT22;6230;52.390;10.256;2023-07-29T05:39:39;22.60;65.50
12329;DHT22;6230;52.390;10.256;2023-07-29T05:42:05;22.60;65.50
12329;DHT22;6230;52.390;10.256;2023-07-29T05:44:31;22.60;65.50
12329;DHT22;6230;52.390;10.256;2023-07-29T05:46:56;22.60;65.50
12329;DHT22;6230;52.390;10.256;2023-07-29T05:49:22;22.60;65.50
12329;DHT22;6230;52.390;10.256;2023-07-29T05:51:48;22.60;65.50
12329;DHT22;6230;52.390;10.256;2023-07-29T05:54:14;22.60;65.50
12329;DHT22;6230;52.390;10.256;2023-07-29T05:56:39;22.60;65.40
12329;DHT22;6230;52.390;10.256;2023-07-29T05:59:05;22.60;65.40
12329;DHT22;6230;52.390;10.256;2023-07-29T06:01:30;22.60;65.30
12329;DHT22;6230;52.390;10.256;2023-07-29T06:03:56;22.70;65.30
12329;DHT22;6230;52.390;10.256;2023-07-29T06:06:21;22.70;65.30
12329;DHT22;6230;52.390;10.256;2023-07-29T06:08:49;22.70;65.20
12329;DHT22;6230;52.390;10.256;2023-07-29T06:11:14;22.70;65.10
12329;DHT22;6230;52.390;10.256;2023-07-29T06:13:40;22.70;65.10
12329;DHT22;6230;52.390;10.256;2023-07-29T06:16:06;22.80;65.10
12329;DHT22;6230;52.390;10.256;2023-07-29T06:18:32;22.80;65.10
12329;DHT22;6230;52.390;10.256;2023-07-29T06:20:58;22.80;65.00
12329;DHT22;6230;52.390;10.256;2023-07-29T06:23:23;22.80;65.00
12329;DHT22;6230;52.390;10.256;2023-07-29T06:25:49;22.80;65.00
12329;DHT22;6230;52.390;10.256;2023-07-29T06:28:14;22.80;65.00
12329;DHT22;6230;52.390;10.256;2023-07-29T06:30:40;22.80;65.10
12329;DHT22;6230;52.390;10.256;2023-07-29T06:33:06;22.80;65.20
12329;DHT22;6230;52.390;10.256;2023-07-29T06:35:31;22.70;65.30
12329;DHT22;6230;52.390;10.256;2023-07-29T06:37:57;22.70;65.30
12329;DHT22;6230;52.390;10.256;2023-07-29T06:40:23;22.70;65.60
12329;DHT22;6230;52.390;10.256;2023-07-29T06:42:48;22.60;66.10
12329;DHT22;6230;52.390;10.256;2023-07-29T06:45:14;22.60;66.30
12329;DHT22;6230;52.390;10.256;2023-07-29T06:47:40;22.50;66.70
12329;DHT22;6230;52.390;10.256;2023-07-29T06:50:06;22.50;66.90
12329;DHT22;6230;52.390;10.256;2023-07-29T06:52:32;22.50;66.90
12329;DHT22;6230;52.390;10.256;2023-07-29T06:54:58;22.40;67.50
12329;DHT22;6230;52.390;10.256;2023-07-29T06:57:23;22.40;67.70
12329;DHT22;6230;52.390;10.256;2023-07-29T06:59:49;22.40;67.50
12329;DHT22;6230;52.390;10.256;2023-07-29T07:02:14;22.40;67.30
12329;DHT22;6230;52.390;10.256;2023-07-29T07:04:40;22.50;67.30
12329;DHT22;6230;52.390;10.256;2023-07-29T07:07:05;22.50;67.20
12329;DHT22;6230;52.390;10.256;2023-07-29T07:09:31;22.50;67.10
12329;DHT22;6230;52.390;10.256;2023-07-29T07:11:56;22.50;66.90
12329;DHT22;6230;52.390;10.256;2023-07-29T07:14:22;22.60;66.90
12329;DHT22;6230;52.390;10.256;2023-07-29T07:16:47;22.60;66.90
12329;DHT22;6230;52.390;10.256;2023-07-29T07:19:13;22.60;66.90
12329;DHT22;6230;52.390;10.256;2023-07-29T07:21:38;22.60;66.80
12329;DHT22;6230;52.390;10.256;2023-07-29T07:24:04;22.60;66.80
12329;DHT22;6230;52.390;10.256;2023-07-29T07:26:29;22.60;66.80
12329;DHT22;6230;52.390;10.256;2023-07-29T07:28:55;22.60;66.80
12329;DHT22;6230;52.390;10.256;2023-07-29T07:31:22;22.70;66.80
12329;DHT22;6230;52.390;10.256;2023-07-29T07:33:47;22.70;66.80
12329;DHT22;6230;52.390;10.256;2023-07-29T07:36:13;22.70;66.90
12329;DHT22;6230;52.390;10.256;2023-07-29T07:38:39;22.70;67.00
12329;DHT22;6230;52.390;10.256;2023-07-29T07:41:04;22.70;67.10
12329;DHT22;6230;52.390;10.256;2023-07-29T07:43:30;22.70;67.00
12329;DHT22;6230;52.390;10.256;2023-07-29T07:45:59;22.80;67.00
12329;DHT22;6230;52.390;10.256;2023-07-29T07:48:26;22.80;66.90
12329;DHT22;6230;52.390;10.256;2023-07-29T07:50:52;22.90;67.00
12329;DHT22;6230;52.390;10.256;2023-07-29T07:53:17;22.90;66.90
12329;DHT22;6230;52.390;10.256;2023-07-29T07:55:43;22.90;66.90
12329;DHT22;6230;52.390;10.256;2023-07-29T07:58:08;22.90;67.00
12329;DHT22;6230;52.390;10.256;2023-07-29T08:00:34;22.90;67.10
12329;DHT22;6230;52.390;10.256;2023-07-29T08:02:59;23.00;67.20
12329;DHT22;6230;52.390;10.256;2023-07-29T08:05:25;23.00;67.00
12329;DHT22;6230;52.390;10.256;2023-07-29T08:07:50;23.10;67.00
12329;DHT22;6230;52.390;10.256;2023-07-29T08:10:16;23.10;67.20
12329;DHT22;6230;52.390;10.256;2023-07-29T08:12:42;23.10;67.10
12329;DHT22;6230;52.390;10.256;2023-07-29T08:15:07;23.10;67.00
12329;DHT22;6230;52.390;10.256;2023-07-29T08:17:33;23.20;67.10
12329;DHT22;6230;52.390;10.256;2023-07-29T08:19:58;23.20;67.40
12329;DHT22;6230;52.390;10.256;2023-07-29T08:22:24;23.20;67.80
12329;DHT22;6230;52.390;10.256;2023-07-29T08:24:49;23.20;68.00
12329;DHT22;6230;52.390;10.256;2023-07-29T08:27:15;23.20;68.10
12329;DHT22;6230;52.390;10.256;2023-07-29T08:29:40;23.30;68.10
12329;DHT22;6230;52.390;10.256;2023-07-29T08:32:06;23.30;68.40
12329;DHT22;6230;52.390;10.256;2023-07-29T08:34:32;23.40;68.60
12329;DHT22;6230;52.390;10.256;2023-07-29T08:36:57;23.50;68.50
12329;DHT22;6230;52.390;10.256;2023-07-29T08:39:23;23.60;68.40
12329;DHT22;6230;52.390;10.256;2023-07-29T08:41:54;23.70;68.20
12329;DHT22;6230;52.390;10.256;2023-07-29T08:44:27;23.80;68.00
12329;DHT22;6230;52.390;10.256;2023-07-29T08:46:55;23.90;67.70
12329;DHT22;6230;52.390;10.256;2023-07-29T08:49:23;24.00;67.60
12329;DHT22;6230;52.390;10.256;2023-07-29T08:51:49;24.00;67.50
12329;DHT22;6230;52.390;10.256;2023-07-29T08:54:16;24.00;67.60
12329;DHT22;6230;52.390;10.256;2023-07-29T08:56:42;24.00;67.60
12329;DHT22;6230;52.390;10.256;2023-07-29T08:59:10;24.00;67.70
12329;DHT22;6230;52.390;10.256;2023-07-29T09:01:38;24.00;67.70
12329;DHT22;6230;52.390;10.256;2023-07-29T09:04:04;24.00;67.60
12329;DHT22;6230;52.390;10.256;2023-07-29T09:06:30;24.10;67.70
12329;DHT22;6230;52.390;10.256;2023-07-29T09:08:56;24.20;67.60
12329;DHT22;6230;52.390;10.256;2023-07-29T09:11:22;24.30;67.60
12329;DHT22;6230;52.390;10.256;2023-07-29T09:13:47;24.50;67.60
12329;DHT22;6230;52.390;10.256;2023-07-29T09:16:13;24.60;67.40
12329;DHT22;6230;52.390;10.256;2023-07-29T09:18:39;24.70;67.40
12329;DHT22;6230;52.390;10.256;2023-07-29T09:21:05;24.70;67.30
12329;DHT22;6230;52.390;10.256;2023-07-29T09:23:41;24.70;67.20
12329;DHT22;6230;52.390;10.256;2023-07-29T09:26:07;24.70;67.30
12329;DHT22;6230;52.390;10.256;2023-07-29T09:28:37;24.70;67.20
12329;DHT22;6230;52.390;10.256;2023-07-29T09:31:03;24.70;67.20
12329;DHT22;6230;52.390;10.256;2023-07-29T09:33:32;24.60;67.20
12329;DHT22;6230;52.390;10.256;2023-07-29T09:36:00;24.60;67.20
12329;DHT22;6230;52.390;10.256;2023-07-29T09:38:27;24.60;67.20
12329;DHT22;6230;52.390;10.256;2023-07-29T09:40:55;24.60;67.30
12329;DHT22;6230;52.390;10.256;2023-07-29T09:43:26;24.50;67.40
12329;DHT22;6230;52.390;10.256;2023-07-29T09:45:54;24.50;67.40
12329;DHT22;6230;52.390;10.256;2023-07-29T09:48:22;24.50;67.40
12329;DHT22;6230;52.390;10.256;2023-07-29T09:50:48;24.50;67.50
12329;DHT22;6230;52.390;10.256;2023-07-29T09:53:14;24.50;67.40
12329;DHT22;6230;52.390;10.256;2023-07-29T09:55:40;24.50;67.30
12329;DHT22;6230;52.390;10.256;2023-07-29T09:58:11;24.60;67.30
12329;DHT22;6230;52.390;10.256;2023-07-29T10:00:36;24.60;67.30
12329;DHT22;6230;52.390;10.256;2023-07-29T10:03:04;24.60;67.30
12329;DHT22;6230;52.390;10.256;2023-07-29T10:05:30;24.70;67.30
12329;DHT22;6230;52.390;10.256;2023-07-29T10:07:56;24.80;67.20
12329;DHT22;6230;52.390;10.256;2023-07-29T10:10:22;24.90;67.30
12329;DHT22;6230;52.390;10.256;2023-07-29T10:12:48;24.90;67.20
12329;DHT22;6230;52.390;10.256;2023-07-29T10:15:15;25.00;67.20
12329;DHT22;6230;52.390;10.256;2023-07-29T10:17:40;25.00;67.20
12329;DHT22;6230;52.390;10.256;2023-07-29T10:20:08;25.10;67.10
12329;DHT22;6230;52.390;10.256;2023-07-29T10:22:46;25.20;67.10
12329;DHT22;6230;52.390;10.256;2023-07-29T10:25:17;25.30;67.10
12329;DHT22;6230;52.390;10.256;2023-07-29T10:27:47;25.30;66.80
12329;DHT22;6230;52.390;10.256;2023-07-29T10:30:13;25.30;66.80
12329;DHT22;6230;52.390;10.256;2023-07-29T10:32:42;25.30;66.80
12329;DHT22;6230;52.390;10.256;2023-07-29T10:35:08;25.20;66.90
12329;DHT22;6230;52.390;10.256;2023-07-29T10:37:34;25.20;66.80
12329;DHT22;6230;52.390;10.256;2023-07-29T10:40:00;25.20;66.90
12329;DHT22;6230;52.390;10.256;2023-07-29T10:42:30;25.20;67.00
12329;DHT22;6230;52.390;10.256;2023-07-29T10:44:56;25.30;66.90
12329;DHT22;6230;52.390;10.256;2023-07-29T10:49:56;25.50;66.80
12329;DHT22;6230;52.390;10.256;2023-07-29T10:52:40;25.60;66.70
12329;DHT22;6230;52.390;10.256;2023-07-29T10:57:48;26.00;66.40
12329;DHT22;6230;52.390;10.256;2023-07-29T11:00:15;26.10;66.00
12329;DHT22;6230;52.390;10.256;2023-07-29T11:02:41;26.10;65.90
12329;DHT22;6230;52.390;10.256;2023-07-29T11:05:17;26.00;65.90
12329;DHT22;6230;52.390;10.256;2023-07-29T11:07:47;26.00;65.80
12329;DHT22;6230;52.390;10.256;2023-07-29T11:10:14;25.90;65.80
12329;DHT22;6230;52.390;10.256;2023-07-29T11:12:51;25.90;65.70
12329;DHT22;6230;52.390;10.256;2023-07-29T11:18:13;26.00;66.10
12329;DHT22;6230;52.390;10.256;2023-07-29T11:20:40;26.20;66.10
12329;DHT22;6230;52.390;10.256;2023-07-29T11:23:06;26.40;65.80
12329;DHT22;6230;52.390;10.256;2023-07-29T11:25:31;26.60;65.30
12329;DHT22;6230;52.390;10.256;2023-07-29T11:28:00;26.70;65.00
12329;DHT22;6230;52.390;10.256;2023-07-29T11:30:25;26.90;65.10
12329;DHT22;6230;52.390;10.256;2023-07-29T11:32:55;27.00;64.80
12329;DHT22;6230;52.390;10.256;2023-07-29T11:35:21;27.20;64.60
12329;DHT22;6230;52.390;10.256;2023-07-29T11:37:48;27.30;64.20
12329;DHT22;6230;52.390;10.256;2023-07-29T11:40:21;27.30;63.80
12329;DHT22;6230;52.390;10.256;2023-07-29T11:42:48;27.20;63.90
12329;DHT22;6230;52.390;10.256;2023-07-29T11:45:15;27.20;63.80
12329;DHT22;6230;52.390;10.256;2023-07-29T11:47:41;27.20;63.60
12329;DHT22;6230;52.390;10.256;2023-07-29T11:50:08;27.20;63.80
12329;DHT22;6230;52.390;10.256;2023-07-29T11:52:36;27.20;63.70
12329;DHT22;6230;52.390;10.256;2023-07-29T11:55:03;27.20;63.40
12329;DHT22;6230;52.390;10.256;2023-07-29T11:57:37;27.20;63.20
12329;DHT22;6230;52.390;10.256;2023-07-29T12:00:04;27.10;62.90
12329;DHT22;6230;52.390;10.256;2023-07-29T12:02:32;27.10;63.00
12329;DHT22;6230;52.390;10.256;2023-07-29T12:04:58;27.10;62.90
12329;DHT22;6230;52.390;10.256;2023-07-29T12:07:24;27.20;63.10
12329;DHT22;6230;52.390;10.256;2023-07-29T12:09:50;27.40;62.60
12329;DHT22;6230;52.390;10.256;2023-07-29T12:12:17;27.50;62.20
12329;DHT22;6230;52.390;10.256;2023-07-29T12:14:44;27.70;62.10
12329;DHT22;6230;52.390;10.256;2023-07-29T12:17:11;27.80;61.50
12329;DHT22;6230;52.390;10.256;2023-07-29T12:19:37;27.80;60.80
12329;DHT22;6230;52.390;10.256;2023-07-29T12:22:08;27.80;61.00
12329;DHT22;6230;52.390;10.256;2023-07-29T12:24:36;27.80;60.40
12329;DHT22;6230;52.390;10.256;2023-07-29T12:27:02;27.80;60.20
12329;DHT22;6230;52.390;10.256;2023-07-29T12:29:28;27.70;59.80
12329;DHT22;6230;52.390;10.256;2023-07-29T12:32:01;27.60;59.40
12329;DHT22;6230;52.390;10.256;2023-07-29T12:34:28;27.60;59.30
12329;DHT22;6230;52.390;10.256;2023-07-29T12:36:56;27.60;59.20
12329;DHT22;6230;52.390;10.256;2023-07-29T12:39:43;27.60;59.20
12329;DHT22;6230;52.390;10.256;2023-07-29T12:42:08;27.70;59.10
12329;DHT22;6230;52.390;10.256;2023-07-29T12:44:35;27.90;58.80
12329;DHT22;6230;52.390;10.256;2023-07-29T12:47:02;27.90;58.50
12329;DHT22;6230;52.390;10.256;2023-07-29T12:49:28;27.80;58.40
12329;DHT22;6230;52.390;10.256;2023-07-29T12:51:55;27.80;58.10
12329;DHT22;6230;52.390;10.256;2023-07-29T12:54:21;27.70;57.90
12329;DHT22;6230;52.390;10.256;2023-07-29T12:56:46;27.70;57.80
12329;DHT22;6230;52.390;10.256;2023-07-29T12:59:12;27.80;57.60
12329;DHT22;6230;52.390;10.256;2023-07-29T13:01:37;27.80;57.40
12329;DHT22;6230;52.390;10.256;2023-07-29T13:04:03;27.80;57.70
12329;DHT22;6230;52.390;10.256;2023-07-29T13:06:28;27.90;57.20
12329;DHT22;6230;52.390;10.256;2023-07-29T13:08:54;28.00;57.10
12329;DHT22;6230;52.390;10.256;2023-07-29T13:11:19;28.00;57.00
12329;DHT22;6230;52.390;10.256;2023-07-29T13:13:46;28.10;57.10
12329;DHT22;6230;52.390;10.256;2023-07-29T13:16:12;28.10;56.70
12329;DHT22;6230;52.390;10.256;2023-07-29T13:18:38;28.00;56.40
12329;DHT22;6230;52.390;10.256;2023-07-29T13:21:04;27.90;56.30
12329;DHT22;6230;52.390;10.256;2023-07-29T13:23:29;27.90;56.30
12329;DHT22;6230;52.390;10.256;2023-07-29T13:25:56;28.00;56.50
12329;DHT22;6230;52.390;10.256;2023-07-29T13:28:21;28.10;56.40
12329;DHT22;6230;52.390;10.256;2023-07-29T13:30:47;28.10;56.00
12329;DHT22;6230;52.390;10.256;2023-07-29T13:33:12;28.00;56.00
12329;DHT22;6230;52.390;10.256;2023-07-29T13:35:38;28.10;56.10
12329;DHT22;6230;52.390;10.256;2023-07-29T13:38:04;28.10;55.80
12329;DHT22;6230;52.390;10.256;2023-07-29T13:40:29;28.20;55.80
12329;DHT22;6230;52.390;10.256;2023-07-29T13:42:55;28.30;56.00
12329;DHT22;6230;52.390;10.256;2023-07-29T13:45:21;28.30;56.10
12329;DHT22;6230;52.390;10.256;2023-07-29T13:47:47;28.50;56.10
12329;DHT22;6230;52.390;10.256;2023-07-29T13:50:13;28.70;56.00
12329;DHT22;6230;52.390;10.256;2023-07-29T13:52:38;28.90;55.90
12329;DHT22;6230;52.390;10.256;2023-07-29T13:55:05;29.10;55.50
12329;DHT22;6230;52.390;10.256;2023-07-29T13:57:31;29.30;55.80
12329;DHT22;6230;52.390;10.256;2023-07-29T13:59:56;29.40;55.60
12329;DHT22;6230;52.390;10.256;2023-07-29T14:02:22;29.50;55.20
12329;DHT22;6230;52.390;10.256;2023-07-29T14:04:47;29.50;55.00
12329;DHT22;6230;52.390;10.256;2023-07-29T14:07:13;29.50;54.80
12329;DHT22;6230;52.390;10.256;2023-07-29T14:09:38;29.50;54.60
12329;DHT22;6230;52.390;10.256;2023-07-29T14:12:04;29.50;54.60
12329;DHT22;6230;52.390;10.256;2023-07-29T14:14:30;29.50;54.70
12329;DHT22;6230;52.390;10.256;2023-07-29T14:16:56;29.50;55.20
12329;DHT22;6230;52.390;10.256;2023-07-29T14:19:22;29.50;54.30
12329;DHT22;6230;52.390;10.256;2023-07-29T14:21:48;29.50;54.10
12329;DHT22;6230;52.390;10.256;2023-07-29T14:24:13;29.50;54.10
12329;DHT22;6230;52.390;10.256;2023-07-29T14:26:41;29.50;54.20
12329;DHT22;6230;52.390;10.256;2023-07-29T14:29:06;29.40;53.90
12329;DHT22;6230;52.390;10.256;2023-07-29T14:31:32;29.30;53.80
12329;DHT22;6230;52.390;10.256;2023-07-29T14:33:57;29.10;53.90
12329;DHT22;6230;52.390;10.256;2023-07-29T14:36:23;29.10;54.20
12329;DHT22;6230;52.390;10.256;2023-07-29T14:38:49;29.30;54.40
12329;DHT22;6230;52.390;10.256;2023-07-29T14:41:14;29.30;54.00
12329;DHT22;6230;52.390;10.256;2023-07-29T14:43:40;29.20;53.90
12329;DHT22;6230;52.390;10.256;2023-07-29T14:46:06;29.10;53.60
12329;DHT22;6230;52.390;10.256;2023-07-29T14:48:31;28.90;53.50
12329;DHT22;6230;52.390;10.256;2023-07-29T14:50:57;28.80;53.70
12329;DHT22;6230;52.390;10.256;2023-07-29T14:53:22;28.70;54.50
12329;DHT22;6230;52.390;10.256;2023-07-29T14:55:48;28.70;53.80
12329;DHT22;6230;52.390;10.256;2023-07-29T14:58:14;28.80;53.90
12329;DHT22;6230;52.390;10.256;2023-07-29T15:00:39;28.80;53.70
12329;DHT22;6230;52.390;10.256;2023-07-29T15:03:05;28.90;53.80
12329;DHT22;6230;52.390;10.256;2023-07-29T15:05:32;28.90;53.70
12329;DHT22;6230;52.390;10.256;2023-07-29T15:07:58;28.80;53.70
12329;DHT22;6230;52.390;10.256;2023-07-29T15:10:23;28.80;53.50
12329;DHT22;6230;52.390;10.256;2023-07-29T15:12:49;28.80;53.50
12329;DHT22;6230;52.390;10.256;2023-07-29T15:15:14;28.80;53.50
12329;DHT22;6230;52.390;10.256;2023-07-29T15:17:40;28.80;53.30
12329;DHT22;6230;52.390;10.256;2023-07-29T15:20:06;28.70;53.00
12329;DHT22;6230;52.390;10.256;2023-07-29T15:22:31;28.70;53.00
12329;DHT22;6230;52.390;10.256;2023-07-29T15:25:01;28.70;53.10
12329;DHT22;6230;52.390;10.256;2023-07-29T15:27:27;28.70;52.90
12329;DHT22;6230;52.390;10.256;2023-07-29T15:29:53;28.60;52.70
12329;DHT22;6230;52.390;10.256;2023-07-29T15:32:18;28.50;52.90
12329;DHT22;6230;52.390;10.256;2023-07-29T15:34:44;28.40;52.70
12329;DHT22;6230;52.390;10.256;2023-07-29T15:37:10;28.30;52.80
12329;DHT22;6230;52.390;10.256;2023-07-29T15:39:35;28.30;53.10
12329;DHT22;6230;52.390;10.256;2023-07-29T15:42:01;28.30;53.10